createdAt,value
2018-11-21T00:00:17.289Z,17.50
2018-11-21T00:01:17.275Z,15.90
2018-11-21T00:02:17.258Z,18.00
2018-11-21T00:03:17.250Z,15.10
2018-11-21T00:04:17.240Z,15.00
2018-11-21T00:05:17.229Z,17.00
2018-11-21T00:06:17.216Z,16.20
2018-11-21T00:07:17.206Z,16.00
2018-11-21T00:08:17.190Z,16.50
2018-11-21T00:09:17.177Z,17.10
2018-11-21T00:10:17.165Z,15.20
2018-11-21T00:11:17.155Z,15.40
2018-11-21T00:12:17.147Z,15.40
2018-11-21T00:13:17.135Z,16.50
2018-11-21T00:14:17.123Z,17.90
2018-11-21T00:15:17.112Z,15.90
2018-11-21T00:16:17.095Z,16.70
2018-11-21T00:17:17.083Z,15.10
2018-11-21T00:18:17.075Z,15.90
2018-11-21T00:19:17.063Z,16.10
2018-11-21T00:20:17.047Z,17.00
2018-11-21T00:21:17.036Z,18.10
2018-11-21T00:22:17.024Z,16.80
2018-11-21T00:23:17.013Z,17.80
2018-11-21T00:24:17.005Z,16.20
2018-11-21T00:25:16.994Z,16.30
2018-11-21T00:26:16.981Z,16.50
2018-11-21T00:27:16.972Z,16.70
2018-11-21T00:28:16.953Z,17.30
2018-11-21T00:29:16.942Z,17.20
2018-11-21T00:30:16.929Z,17.30
2018-11-21T00:31:16.918Z,15.50
2018-11-21T00:32:16.909Z,17.90
2018-11-21T00:33:16.903Z,16.70
2018-11-21T00:34:16.881Z,17.80
2018-11-21T00:35:16.869Z,18.60
2018-11-21T00:36:16.863Z,17.60
2018-11-21T00:37:16.851Z,16.50
2018-11-21T00:38:16.838Z,17.20
2018-11-21T00:39:16.826Z,16.00
2018-11-21T00:40:16.810Z,16.10
2018-11-21T00:41:16.798Z,17.50
2018-11-21T00:42:16.786Z,17.20
2018-11-21T00:43:16.775Z,16.60
2018-11-21T00:44:16.768Z,16.80
2018-11-21T00:45:16.756Z,17.00
2018-11-21T00:46:16.742Z,18.10
2018-11-21T00:47:16.730Z,17.40
2018-11-21T00:48:16.713Z,17.10
2018-11-21T00:49:16.701Z,16.90
2018-11-21T00:50:16.696Z,17.50
2018-11-21T00:51:16.683Z,16.80
2018-11-21T00:52:16.666Z,16.90
2018-11-21T00:53:16.656Z,16.10
2018-11-21T00:54:16.642Z,17.90
2018-11-21T00:55:16.629Z,18.00
2018-11-21T00:56:16.623Z,18.30
2018-11-21T00:57:16.611Z,16.60
2018-11-21T00:58:16.598Z,17.30
2018-11-21T00:59:16.587Z,17.00
2018-11-21T01:00:16.577Z,19.10
2018-11-21T01:01:16.557Z,17.30
2018-11-21T01:02:16.547Z,17.90
2018-11-21T01:03:16.533Z,18.00
2018-11-21T01:04:16.527Z,19.90
2018-11-21T01:05:16.519Z,17.80
2018-11-21T01:06:16.500Z,18.10
2018-11-21T01:07:16.485Z,16.80
2018-11-21T01:08:16.478Z,17.70
2018-11-21T01:09:16.466Z,18.80
2018-11-21T01:10:16.455Z,18.70
2018-11-21T01:11:16.442Z,17.90
2018-11-21T01:12:16.426Z,18.20
2018-11-21T01:13:16.412Z,18.10
2018-11-21T01:14:16.399Z,18.20
2018-11-21T01:15:16.389Z,16.50
2018-11-21T01:16:16.383Z,17.10
2018-11-21T01:17:16.369Z,17.00
2018-11-21T01:18:16.358Z,16.30
2018-11-21T01:19:16.345Z,16.90
2018-11-21T01:20:16.330Z,18.70
2018-11-21T01:21:16.316Z,16.80
2018-11-21T01:22:16.308Z,18.30
2018-11-21T01:23:16.296Z,17.20
2018-11-21T01:24:16.285Z,18.80
2018-11-21T01:25:16.269Z,17.80
2018-11-21T01:26:16.259Z,16.30
2018-11-21T01:27:16.245Z,18.00
2018-11-21T01:28:16.236Z,18.20
2018-11-21T01:29:16.233Z,17.70
2018-11-21T01:30:16.211Z,17.10
2018-11-21T01:31:16.201Z,18.50
2018-11-21T01:32:16.183Z,18.10
2018-11-21T01:33:16.171Z,16.70
2018-11-21T01:34:16.162Z,17.60
2018-11-21T01:35:16.147Z,16.00
2018-11-21T01:36:16.139Z,18.20
2018-11-21T01:37:16.127Z,18.80
2018-11-21T01:38:16.111Z,17.90
2018-11-21T01:39:16.098Z,16.80
2018-11-21T01:40:16.093Z,16.90
2018-11-21T01:41:16.080Z,16.10
2018-11-21T01:42:16.068Z,19.50
2018-11-21T01:43:16.054Z,18.30
2018-11-21T01:44:16.039Z,18.00
2018-11-21T01:45:16.026Z,17.90
2018-11-21T01:46:16.013Z,20.10
2018-11-21T01:47:16.002Z,20.40
2018-11-21T01:48:15.994Z,18.60
2018-11-21T01:49:15.983Z,16.30
2018-11-21T01:50:15.970Z,19.20
2018-11-21T01:51:15.959Z,19.70
2018-11-21T01:52:15.942Z,18.60
2018-11-21T01:53:15.931Z,19.80
2018-11-21T01:54:15.923Z,20.80
2018-11-21T01:55:15.912Z,20.80
2018-11-21T01:56:15.897Z,18.60
2018-11-21T01:57:15.881Z,19.70
2018-11-21T01:58:15.868Z,20.00
2018-11-21T01:59:15.857Z,19.30
2018-11-21T02:00:15.850Z,19.50
2018-11-21T02:01:15.838Z,20.40
2018-11-21T02:02:15.825Z,18.80
2018-11-21T02:03:15.817Z,19.50
2018-11-21T02:04:15.795Z,19.50
2018-11-21T02:05:15.789Z,20.50
2018-11-21T02:06:15.771Z,20.50
2018-11-21T02:07:15.759Z,18.30
2018-11-21T02:08:15.753Z,19.70
2018-11-21T02:09:15.740Z,18.30
2018-11-21T02:10:15.724Z,20.90
2018-11-21T02:11:15.710Z,20.20
2018-11-21T02:12:15.702Z,22.50
2018-11-21T02:13:15.691Z,18.60
2018-11-21T02:14:15.678Z,19.90
2018-11-21T02:15:15.666Z,21.50
2018-11-21T02:16:15.650Z,22.20
2018-11-21T02:17:15.637Z,18.70
2018-11-21T02:18:15.625Z,23.50
2018-11-21T02:19:15.613Z,19.90
2018-11-21T02:20:15.606Z,20.40
2018-11-21T02:21:15.595Z,21.60
2018-11-21T02:22:15.579Z,23.30
2018-11-21T02:23:15.568Z,20.90
2018-11-21T02:24:15.551Z,21.20
2018-11-21T02:25:15.539Z,20.60
2018-11-21T02:26:15.531Z,20.70
2018-11-21T02:27:15.518Z,24.40
2018-11-21T02:28:15.501Z,20.50
2018-11-21T02:29:15.490Z,21.10
2018-11-21T02:30:15.476Z,21.10
2018-11-21T02:31:15.464Z,24.80
2018-11-21T02:32:15.458Z,22.80
2018-11-21T02:33:15.446Z,23.10
2018-11-21T02:34:15.434Z,22.50
2018-11-21T02:35:15.421Z,22.70
2018-11-21T02:36:15.402Z,22.20
2018-11-21T02:37:15.390Z,26.30
2018-11-21T02:38:15.377Z,20.70
2018-11-21T02:39:15.364Z,22.40
2018-11-21T02:40:15.358Z,24.70
2018-11-21T02:41:15.345Z,19.90
2018-11-21T02:42:15.326Z,22.90
2018-11-21T02:43:15.315Z,21.00
2018-11-21T02:44:15.307Z,21.10
2018-11-21T02:45:15.295Z,26.10
2018-11-21T02:46:15.280Z,22.70
2018-11-21T02:47:15.270Z,21.00
2018-11-21T02:48:15.282Z,23.70
2018-11-21T02:49:15.240Z,22.40
2018-11-21T02:50:15.230Z,20.80
2018-11-21T02:51:15.215Z,23.90
2018-11-21T02:52:15.207Z,22.50
2018-11-21T02:53:15.197Z,22.90
2018-11-21T02:54:15.181Z,21.60
2018-11-21T02:55:15.169Z,21.10
2018-11-21T02:56:15.154Z,24.90
2018-11-21T02:57:15.139Z,23.10
2018-11-21T02:58:15.130Z,21.60
2018-11-21T02:59:15.119Z,21.50
2018-11-21T03:00:15.101Z,23.60
2018-11-21T03:01:15.091Z,23.20
2018-11-21T03:02:15.076Z,21.10
2018-11-21T03:03:15.063Z,22.30
2018-11-21T03:04:15.057Z,23.50
2018-11-21T03:05:15.045Z,22.50
2018-11-21T03:06:15.029Z,21.30
2018-11-21T03:07:15.019Z,22.40
2018-11-21T03:08:15.001Z,23.90
2018-11-21T03:09:14.988Z,25.10
2018-11-21T03:10:14.974Z,24.80
2018-11-21T03:11:14.964Z,22.90
2018-11-21T03:12:14.954Z,21.50
2018-11-21T03:13:14.943Z,22.90
2018-11-21T03:14:14.925Z,25.00
2018-11-21T03:15:14.912Z,22.40
2018-11-21T03:16:14.908Z,25.90
2018-11-21T03:17:14.891Z,23.70
2018-11-21T03:18:14.883Z,23.10
2018-11-21T03:19:14.867Z,22.00
2018-11-21T03:20:14.849Z,22.30
2018-11-21T03:21:14.837Z,23.90
2018-11-21T03:22:14.827Z,22.80
2018-11-21T03:23:14.816Z,23.10
2018-11-21T03:24:14.798Z,26.40
2018-11-21T03:25:14.790Z,23.40
2018-11-21T03:26:14.776Z,20.90
2018-11-21T03:27:14.760Z,20.80
2018-11-21T03:28:14.753Z,24.00
2018-11-21T03:29:14.746Z,22.70
2018-11-21T03:30:14.722Z,21.40
2018-11-21T03:31:14.709Z,23.60
2018-11-21T03:32:14.706Z,22.30
2018-11-21T03:33:14.694Z,23.60
2018-11-21T03:34:14.675Z,22.70
2018-11-21T03:35:14.664Z,24.70
2018-11-21T03:36:14.646Z,24.00
2018-11-21T03:37:14.633Z,23.10
2018-11-21T03:38:14.619Z,23.00
2018-11-21T03:39:14.608Z,26.50
2018-11-21T03:40:14.603Z,25.20
2018-11-21T03:41:14.586Z,24.10
2018-11-21T03:42:14.577Z,23.50
2018-11-21T03:43:14.561Z,22.40
2018-11-21T03:44:14.543Z,22.80
2018-11-21T03:45:14.531Z,24.30
2018-11-21T03:46:14.522Z,25.60
2018-11-21T03:47:14.510Z,26.80
2018-11-21T03:48:14.492Z,24.40
2018-11-21T03:49:14.480Z,25.70
2018-11-21T03:50:14.465Z,26.40
2018-11-21T03:51:14.454Z,26.70
2018-11-21T03:52:14.448Z,25.50
2018-11-21T03:53:14.432Z,25.00
2018-11-21T03:54:14.418Z,25.00
2018-11-21T03:55:14.405Z,23.50
2018-11-21T03:56:14.394Z,27.20
2018-11-21T03:57:14.377Z,24.60
2018-11-21T03:58:14.363Z,24.70
2018-11-21T03:59:14.349Z,24.60
2018-11-21T04:00:14.349Z,22.10
2018-11-21T04:01:14.334Z,23.10
2018-11-21T04:02:14.314Z,24.20
2018-11-21T04:03:14.298Z,26.30
2018-11-21T04:04:14.308Z,24.30
2018-11-21T04:05:14.277Z,22.10
2018-11-21T04:06:14.262Z,25.20
2018-11-21T04:07:14.252Z,24.90
2018-11-21T04:08:14.233Z,23.70
2018-11-21T04:09:14.225Z,25.90
2018-11-21T04:10:14.206Z,25.10
2018-11-21T04:11:14.195Z,26.90
2018-11-21T04:12:14.226Z,21.40
2018-11-21T04:13:14.179Z,26.40
2018-11-21T04:14:14.160Z,22.10
2018-11-21T04:15:14.146Z,23.70
2018-11-21T04:16:14.128Z,25.00
2018-11-21T04:17:14.116Z,26.10
2018-11-21T04:18:14.108Z,25.50
2018-11-21T04:19:14.094Z,24.30
2018-11-21T04:20:14.078Z,25.60
2018-11-21T04:21:14.064Z,22.40
2018-11-21T04:22:14.048Z,24.40
2018-11-21T04:23:14.037Z,22.80
2018-11-21T04:24:14.031Z,24.10
2018-11-21T04:25:14.022Z,24.60
2018-11-21T04:26:14.002Z,22.60
2018-11-21T04:27:13.988Z,24.70
2018-11-21T04:28:13.969Z,25.00
2018-11-21T04:29:13.958Z,22.20
2018-11-21T04:30:13.945Z,22.20
2018-11-21T04:31:13.931Z,22.80
2018-11-21T04:32:13.921Z,22.50
2018-11-21T04:33:13.909Z,25.70
2018-11-21T04:34:13.890Z,24.80
2018-11-21T04:35:13.878Z,21.60
2018-11-21T04:36:13.873Z,19.70
2018-11-21T04:37:13.858Z,20.90
2018-11-21T04:38:13.844Z,21.10
2018-11-21T04:39:13.831Z,23.80
2018-11-21T04:40:13.812Z,23.50
2018-11-21T04:41:13.800Z,23.40
2018-11-21T04:42:13.788Z,21.40
2018-11-21T04:43:13.774Z,22.30
2018-11-21T04:44:13.766Z,21.90
2018-11-21T04:45:13.754Z,21.30
2018-11-21T04:46:13.739Z,21.90
2018-11-21T04:47:13.727Z,25.10
2018-11-21T04:48:13.709Z,22.50
2018-11-21T04:49:13.697Z,23.50
2018-11-21T04:50:13.687Z,25.60
2018-11-21T04:51:13.673Z,25.90
2018-11-21T04:52:13.661Z,26.70
2018-11-21T04:53:13.644Z,26.10
2018-11-21T04:54:13.630Z,24.50
2018-11-21T04:55:13.617Z,26.70
2018-11-21T04:56:13.609Z,24.50
2018-11-21T04:57:13.596Z,29.40
2018-11-21T04:58:13.583Z,26.20
2018-11-21T04:59:13.570Z,26.10
2018-11-21T05:00:13.552Z,26.90
2018-11-21T05:01:13.539Z,27.90
2018-11-21T05:02:13.526Z,24.70
2018-11-21T05:03:13.511Z,26.80
2018-11-21T05:04:13.504Z,23.80
2018-11-21T05:05:13.492Z,25.10
2018-11-21T05:06:13.471Z,25.20
2018-11-21T05:07:13.458Z,23.00
2018-11-21T05:08:13.449Z,22.50
2018-11-21T05:09:13.436Z,24.20
2018-11-21T05:10:13.427Z,25.00
2018-11-21T05:11:13.415Z,25.60
2018-11-21T05:12:13.393Z,20.80
2018-11-21T05:13:13.379Z,27.00
2018-11-21T05:14:13.365Z,23.10
2018-11-21T05:15:13.352Z,25.40
2018-11-21T05:16:13.346Z,26.90
2018-11-21T05:17:13.332Z,26.20
2018-11-21T05:18:13.316Z,27.20
2018-11-21T05:19:13.304Z,25.20
2018-11-21T05:20:13.293Z,27.20
2018-11-21T05:21:13.273Z,27.60
2018-11-21T05:22:13.264Z,24.70
2018-11-21T05:23:13.249Z,25.40
2018-11-21T05:24:13.236Z,26.30
2018-11-21T05:25:13.221Z,26.10
2018-11-21T05:26:13.205Z,26.20
2018-11-21T05:27:13.193Z,24.30
2018-11-21T05:28:13.183Z,23.10
2018-11-21T05:29:13.169Z,23.60
2018-11-21T05:30:13.165Z,26.80
2018-11-21T05:31:13.143Z,27.70
2018-11-21T05:32:13.130Z,25.00
2018-11-21T05:33:13.111Z,23.70
2018-11-21T05:34:13.100Z,26.80
2018-11-21T05:35:13.085Z,22.70
2018-11-21T05:36:13.077Z,24.60
2018-11-21T05:37:13.064Z,26.00
2018-11-21T05:38:13.044Z,26.00
2018-11-21T05:39:13.031Z,28.10
2018-11-21T05:40:13.022Z,24.50
2018-11-21T05:41:13.010Z,26.80
2018-11-21T05:42:12.995Z,25.30
2018-11-21T05:43:12.984Z,27.70
2018-11-21T05:44:12.968Z,23.40
2018-11-21T05:45:12.951Z,28.60
2018-11-21T05:46:12.939Z,24.20
2018-11-21T05:47:12.928Z,25.00
2018-11-21T05:48:12.914Z,25.10
2018-11-21T05:49:12.901Z,25.30
2018-11-21T05:50:12.889Z,26.30
2018-11-21T05:51:12.874Z,24.80
2018-11-21T05:52:12.859Z,24.30
2018-11-21T05:53:12.845Z,28.00
2018-11-21T05:54:12.834Z,26.90
2018-11-21T05:55:12.824Z,24.70
2018-11-21T05:56:12.803Z,26.10
2018-11-21T05:57:12.789Z,24.90
2018-11-21T05:58:12.775Z,27.70
2018-11-21T05:59:12.761Z,25.80
2018-11-21T06:00:12.753Z,25.70
2018-11-21T06:01:12.739Z,25.20
2018-11-21T06:02:12.725Z,27.70
2018-11-21T06:03:12.711Z,27.00
2018-11-21T06:04:12.693Z,25.00
2018-11-21T06:05:12.681Z,25.00
2018-11-21T06:06:12.669Z,27.20
2018-11-21T06:07:12.653Z,28.00
2018-11-21T06:08:12.644Z,25.00
2018-11-21T06:09:12.635Z,24.80
2018-11-21T06:10:12.612Z,26.70
2018-11-21T06:11:12.600Z,25.40
2018-11-21T06:12:12.593Z,25.00
2018-11-21T06:13:12.577Z,27.50
2018-11-21T06:14:12.564Z,28.10
2018-11-21T06:15:12.556Z,27.10
2018-11-21T06:16:12.531Z,24.10
2018-11-21T06:17:12.518Z,26.30
2018-11-21T06:18:12.504Z,27.10
2018-11-21T06:19:12.489Z,26.20
2018-11-21T06:20:12.483Z,27.10
2018-11-21T06:21:12.467Z,24.90
2018-11-21T06:22:12.454Z,27.30
2018-11-21T06:23:12.444Z,24.60
2018-11-21T06:24:12.421Z,27.70
2018-11-21T06:25:12.408Z,29.40
2018-11-21T06:26:12.400Z,26.70
2018-11-21T06:27:12.389Z,26.80
2018-11-21T06:28:12.368Z,28.00
2018-11-21T06:29:12.354Z,28.40
2018-11-21T06:30:12.340Z,25.70
2018-11-21T06:31:12.330Z,27.20
2018-11-21T06:32:12.317Z,25.10
2018-11-21T06:33:12.304Z,27.50
2018-11-21T06:34:12.289Z,29.60
2018-11-21T06:35:12.279Z,25.10
2018-11-21T06:36:12.259Z,24.60
2018-11-21T06:37:12.246Z,28.70
2018-11-21T06:38:12.232Z,28.60
2018-11-21T06:39:12.217Z,26.50
2018-11-21T06:40:12.212Z,26.00
2018-11-21T06:41:12.195Z,28.40
2018-11-21T06:42:12.177Z,26.10
2018-11-21T06:43:12.163Z,28.40
2018-11-21T06:44:12.154Z,26.90
2018-11-21T06:45:12.142Z,26.80
2018-11-21T06:46:12.127Z,28.60
2018-11-21T06:47:12.116Z,25.00
2018-11-21T06:48:12.097Z,27.50
2018-11-21T06:49:12.083Z,26.70
2018-11-21T06:50:12.068Z,24.10
2018-11-21T06:51:12.059Z,29.30
2018-11-21T06:52:12.047Z,26.10
2018-11-21T06:53:12.033Z,26.20
2018-11-21T06:54:12.018Z,26.20
2018-11-21T06:55:12.004Z,25.70
2018-11-21T06:56:11.988Z,24.90
2018-11-21T06:57:11.973Z,28.60
2018-11-21T06:58:11.964Z,28.90
2018-11-21T06:59:11.951Z,28.00
2018-11-21T07:00:11.932Z,26.10
2018-11-21T07:01:11.919Z,24.50
2018-11-21T07:02:11.906Z,28.50
2018-11-21T07:03:11.893Z,28.80
2018-11-21T07:04:11.882Z,26.90
2018-11-21T07:05:11.869Z,28.40
2018-11-21T07:06:11.855Z,25.70
2018-11-21T07:07:11.843Z,26.50
2018-11-21T07:08:11.823Z,27.90
2018-11-21T07:09:11.812Z,28.50
2018-11-21T07:10:11.796Z,25.50
2018-11-21T07:11:11.782Z,26.40
2018-11-21T07:12:11.776Z,25.10
2018-11-21T07:13:11.763Z,27.90
2018-11-21T07:14:11.742Z,26.30
2018-11-21T07:15:11.728Z,27.80
2018-11-21T07:16:11.719Z,27.20
2018-11-21T07:17:11.705Z,31.70
2018-11-21T07:18:11.693Z,29.40
2018-11-21T07:19:11.679Z,28.10
2018-11-21T07:20:11.660Z,30.10
2018-11-21T07:21:11.647Z,30.80
2018-11-21T07:22:11.633Z,28.70
2018-11-21T07:23:11.619Z,27.40
2018-11-21T07:24:11.613Z,27.90
2018-11-21T07:25:11.598Z,29.60
2018-11-21T07:26:11.583Z,24.80
2018-11-21T07:27:11.569Z,27.60
2018-11-21T07:28:13.147Z,28.90
2018-11-21T07:29:11.538Z,28.50
2018-11-21T07:30:11.528Z,28.30
2018-11-21T07:31:11.514Z,27.20
2018-11-21T07:32:11.497Z,27.20
2018-11-21T07:33:11.484Z,25.90
2018-11-21T07:34:11.471Z,28.40
2018-11-21T07:35:14.670Z,27.90
2018-11-21T07:36:11.447Z,25.80
2018-11-21T07:37:11.436Z,27.50
2018-11-21T07:38:11.421Z,27.20
2018-11-21T07:39:11.412Z,26.10
2018-11-21T07:40:11.394Z,25.60
2018-11-21T07:41:11.377Z,27.90
2018-11-21T07:42:11.364Z,26.70
2018-11-21T07:43:11.351Z,28.60
2018-11-21T07:44:11.341Z,25.40
2018-11-21T07:45:11.353Z,28.70
2018-11-21T07:46:11.309Z,27.90
2018-11-21T07:47:11.296Z,24.00
2018-11-21T07:48:11.287Z,25.00
2018-11-21T07:49:11.275Z,30.40
2018-11-21T07:50:11.264Z,25.40
2018-11-21T07:51:11.248Z,28.10
2018-11-21T07:52:11.233Z,25.50
2018-11-21T07:53:11.218Z,26.00
2018-11-21T07:54:11.208Z,24.30
2018-11-21T07:55:11.193Z,27.40
2018-11-21T07:56:11.184Z,28.30
2018-11-21T07:57:11.173Z,25.20
2018-11-21T07:58:11.157Z,24.70
2018-11-21T07:59:11.145Z,25.40
2018-11-21T08:00:11.128Z,22.40
2018-11-21T08:01:11.116Z,25.90
2018-11-21T08:02:11.108Z,27.50
2018-11-21T08:03:11.100Z,22.90
2018-11-21T08:04:11.079Z,23.50
2018-11-21T08:05:11.078Z,24.10
2018-11-21T08:06:11.058Z,23.00
2018-11-21T08:07:11.045Z,26.30
2018-11-21T08:08:11.039Z,28.00
2018-11-21T08:09:11.027Z,23.40
2018-11-21T08:10:11.014Z,26.00
2018-11-21T08:11:11.006Z,23.30
2018-11-21T08:12:10.988Z,25.40
2018-11-21T08:13:10.976Z,25.60
2018-11-21T08:14:10.962Z,26.10
2018-11-21T08:15:10.952Z,25.50
2018-11-21T08:16:10.944Z,25.80
2018-11-21T08:17:10.934Z,24.90
2018-11-21T08:18:10.916Z,25.20
2018-11-21T08:19:10.905Z,23.40
2018-11-21T08:20:10.899Z,23.70
2018-11-21T08:21:10.886Z,24.40
2018-11-21T08:22:10.875Z,25.30
2018-11-21T08:23:10.869Z,22.00
2018-11-21T08:24:10.849Z,23.10
2018-11-21T08:25:10.837Z,25.10
2018-11-21T08:26:10.826Z,22.20
2018-11-21T08:27:10.814Z,23.90
2018-11-21T08:28:10.809Z,25.00
2018-11-21T08:29:10.798Z,23.40
2018-11-21T08:30:10.793Z,23.40
2018-11-21T08:31:10.774Z,21.80
2018-11-21T08:32:10.759Z,26.20
2018-11-21T08:33:10.748Z,22.40
2018-11-21T08:34:10.741Z,23.30
2018-11-21T08:35:10.731Z,24.50
2018-11-21T08:36:10.715Z,23.40
2018-11-21T08:37:10.704Z,24.00
2018-11-21T08:38:10.693Z,22.90
2018-11-21T08:39:10.681Z,26.90
2018-11-21T08:40:10.675Z,23.50
2018-11-21T08:41:10.664Z,23.50
2018-11-21T08:42:10.652Z,25.10
2018-11-21T08:43:10.641Z,23.40
2018-11-21T08:44:10.625Z,22.10
2018-11-21T08:45:10.614Z,26.60
2018-11-21T08:46:10.601Z,24.90
2018-11-21T08:47:10.594Z,24.10
2018-11-21T08:48:10.583Z,25.00
2018-11-21T08:49:10.573Z,22.90
2018-11-21T08:50:10.557Z,24.60
2018-11-21T08:51:10.543Z,24.20
2018-11-21T08:52:10.537Z,20.20
2018-11-21T08:53:10.527Z,24.20
2018-11-21T08:54:10.513Z,21.80
2018-11-21T08:55:10.505Z,22.00
2018-11-21T08:56:10.487Z,22.60
2018-11-21T08:57:10.474Z,21.70
2018-11-21T08:58:10.462Z,22.30
2018-11-21T08:59:10.451Z,23.50
2018-11-21T09:00:10.444Z,22.50
2018-11-21T09:01:10.433Z,18.20
2018-11-21T09:02:10.423Z,23.80
2018-11-21T09:03:10.411Z,20.90
2018-11-21T09:04:10.397Z,20.70
2018-11-21T09:05:10.387Z,20.50
2018-11-21T09:06:10.385Z,20.70
2018-11-21T09:07:10.372Z,20.70
2018-11-21T09:08:10.365Z,20.30
2018-11-21T09:09:10.351Z,20.70
2018-11-21T09:10:10.342Z,18.80
2018-11-21T09:11:10.335Z,18.50
2018-11-21T09:12:11.156Z,20.20
2018-11-21T09:13:10.323Z,18.90
2018-11-21T09:14:10.315Z,19.60
2018-11-21T09:15:10.310Z,18.10
2018-11-21T09:16:10.300Z,19.20
2018-11-21T09:17:10.293Z,18.80
2018-11-21T09:18:10.287Z,17.00
2018-11-21T09:19:10.281Z,19.00
2018-11-21T09:20:10.283Z,18.80
2018-11-21T09:21:10.278Z,19.80
2018-11-21T09:22:10.337Z,18.00
2018-11-21T09:23:10.260Z,18.60
2018-11-21T09:24:10.260Z,19.90
2018-11-21T09:25:10.256Z,19.20
2018-11-21T09:26:10.249Z,19.70
2018-11-21T09:27:10.266Z,20.30
2018-11-21T09:28:10.234Z,19.40
2018-11-21T09:29:10.231Z,20.90
2018-11-21T09:30:10.223Z,22.50
2018-11-21T09:31:10.216Z,20.90
2018-11-21T09:32:10.257Z,21.90
2018-11-21T09:33:10.209Z,21.70
2018-11-21T09:34:10.203Z,18.80
2018-11-21T09:35:10.195Z,20.60
2018-11-21T09:36:10.185Z,19.40
2018-11-21T09:37:10.181Z,20.50
2018-11-21T09:38:10.181Z,21.20
2018-11-21T09:39:10.175Z,20.80
2018-11-21T09:40:10.161Z,19.90
2018-11-21T09:41:10.160Z,20.50
2018-11-21T09:42:10.151Z,17.50
2018-11-21T09:43:10.145Z,20.40
2018-11-21T09:44:10.144Z,19.50
2018-11-21T09:45:10.139Z,17.50
2018-11-21T09:46:10.134Z,20.20
2018-11-21T09:47:10.131Z,19.20
2018-11-21T09:48:10.123Z,18.70
2018-11-21T09:49:10.118Z,19.70
2018-11-21T09:50:10.114Z,19.30
2018-11-21T09:51:10.112Z,19.00
2018-11-21T09:52:10.112Z,19.30
2018-11-21T09:53:10.109Z,18.20
2018-11-21T09:54:10.103Z,19.20
2018-11-21T09:55:10.101Z,16.80
2018-11-21T09:56:10.103Z,20.40
2018-11-21T09:57:10.099Z,19.30
2018-11-21T09:58:10.098Z,18.10
2018-11-21T09:59:10.097Z,19.00
2018-11-21T10:00:10.089Z,17.90
2018-11-21T10:01:10.087Z,17.60
2018-11-21T10:02:10.084Z,17.80
2018-11-21T10:03:10.081Z,16.40
2018-11-21T10:04:10.085Z,17.80
2018-11-21T10:05:10.083Z,17.60
2018-11-21T10:06:10.078Z,17.40
2018-11-21T10:07:10.078Z,18.10
2018-11-21T10:08:10.069Z,19.80
2018-11-21T10:09:10.071Z,21.20
2018-11-21T10:10:10.071Z,19.30
2018-11-21T10:11:10.064Z,19.80
2018-11-21T10:12:10.058Z,17.70
2018-11-21T10:13:10.055Z,20.40
2018-11-21T10:14:10.049Z,18.10
2018-11-21T10:15:10.046Z,19.20
2018-11-21T10:16:10.047Z,20.70
2018-11-21T10:17:10.044Z,18.70
2018-11-21T10:18:10.038Z,20.20
2018-11-21T10:19:10.034Z,21.60
2018-11-21T10:20:10.026Z,22.10
2018-11-21T10:21:10.023Z,18.10
2018-11-21T10:22:10.017Z,19.50
2018-11-21T10:23:10.014Z,16.50
2018-11-21T10:24:10.015Z,17.40
2018-11-21T10:25:10.011Z,17.50
2018-11-21T10:26:10.001Z,16.60
2018-11-21T10:27:09.999Z,18.50
2018-11-21T10:28:09.999Z,19.60
2018-11-21T10:29:09.997Z,18.70
2018-11-21T10:30:09.993Z,18.00
2018-11-21T10:31:09.990Z,19.50
2018-11-21T10:32:09.982Z,16.60
2018-11-21T10:33:09.977Z,18.00
2018-11-21T10:34:09.973Z,17.40
2018-11-21T10:35:09.973Z,18.10
2018-11-21T10:36:09.972Z,20.10
2018-11-21T10:37:09.968Z,18.10
2018-11-21T10:38:09.961Z,18.40
2018-11-21T10:39:09.957Z,18.20
2018-11-21T10:40:09.948Z,18.20
2018-11-21T10:41:09.944Z,18.90
2018-11-21T10:42:09.942Z,20.10
2018-11-21T10:43:09.937Z,22.10
2018-11-21T10:44:09.928Z,19.10
2018-11-21T10:45:09.926Z,20.20
2018-11-21T10:46:09.917Z,19.50
2018-11-21T10:47:09.911Z,20.90
2018-11-21T10:48:09.908Z,18.80
2018-11-21T10:49:09.902Z,20.20
2018-11-21T10:50:09.894Z,19.90
2018-11-21T10:51:09.890Z,20.40
2018-11-21T10:52:09.877Z,18.90
2018-11-21T10:53:09.871Z,19.00
2018-11-21T10:54:09.864Z,20.30
2018-11-21T10:55:09.858Z,19.40
2018-11-21T10:56:09.855Z,20.40
2018-11-21T10:57:09.850Z,19.60
2018-11-21T10:58:09.835Z,17.60
2018-11-21T10:59:09.832Z,19.80
2018-11-21T11:00:09.827Z,20.70
2018-11-21T11:01:09.820Z,23.20
2018-11-21T11:02:09.810Z,20.00
2018-11-21T11:03:09.804Z,22.10
2018-11-21T11:04:09.792Z,18.50
2018-11-21T11:05:09.786Z,20.80
2018-11-21T11:06:09.778Z,19.00
2018-11-21T11:07:09.772Z,19.20
2018-11-21T11:08:09.772Z,20.40
2018-11-21T11:09:09.764Z,18.50
2018-11-21T11:10:09.759Z,18.50
2018-11-21T11:11:09.757Z,18.40
2018-11-21T11:12:09.742Z,17.20
2018-11-21T11:13:09.739Z,17.50
2018-11-21T11:14:09.738Z,18.70
2018-11-21T11:15:09.730Z,18.80
2018-11-21T11:16:09.721Z,18.90
2018-11-21T11:17:09.715Z,19.90
2018-11-21T11:18:09.709Z,18.40
2018-11-21T11:19:09.704Z,18.00
2018-11-21T11:20:09.704Z,18.70
2018-11-21T11:21:09.698Z,18.70
2018-11-21T11:22:09.692Z,19.80
2018-11-21T11:23:09.689Z,18.70
2018-11-21T11:24:09.678Z,17.50
2018-11-21T11:25:09.672Z,19.40
2018-11-21T11:26:09.665Z,18.50
2018-11-21T11:27:09.659Z,18.30
2018-11-21T11:28:10.314Z,19.20
2018-11-21T11:29:09.654Z,18.40
2018-11-21T11:30:09.641Z,19.50
2018-11-21T11:31:09.637Z,18.10
2018-11-21T11:32:09.634Z,20.50
2018-11-21T11:33:09.629Z,17.60
2018-11-21T11:34:09.621Z,18.40
2018-11-21T11:35:09.615Z,18.50
2018-11-21T11:36:09.606Z,20.10
2018-11-21T11:37:09.597Z,17.10
2018-11-21T11:38:09.592Z,19.90
2018-11-21T11:39:09.585Z,20.30
2018-11-21T11:40:09.588Z,19.30
2018-11-21T11:41:09.574Z,17.80
2018-11-21T11:42:09.568Z,19.90
2018-11-21T11:43:09.562Z,19.30
2018-11-21T11:44:09.551Z,19.60
2018-11-21T11:45:10.204Z,18.60
2018-11-21T11:46:09.539Z,18.90
2018-11-21T11:47:09.534Z,18.80
2018-11-21T11:48:09.519Z,20.10
2018-11-21T11:49:09.513Z,19.50
2018-11-21T11:50:09.503Z,20.30
2018-11-21T11:51:09.497Z,22.40
2018-11-21T11:52:09.493Z,18.70
2018-11-21T11:53:09.520Z,19.40
2018-11-21T11:54:09.478Z,19.70
2018-11-21T11:55:09.470Z,19.50
2018-11-21T11:56:09.456Z,17.90
2018-11-21T11:57:09.450Z,18.20
2018-11-21T11:58:09.440Z,19.00
2018-11-21T11:59:09.437Z,19.30
2018-11-21T12:00:09.429Z,20.40
2018-11-21T12:01:09.421Z,20.70
2018-11-21T12:02:13.151Z,18.00
2018-11-21T12:03:09.399Z,18.70
2018-11-21T12:04:09.399Z,20.10
2018-11-21T12:05:09.389Z,21.40
2018-11-21T12:06:09.382Z,18.20
2018-11-21T12:07:09.372Z,18.30
2018-11-21T12:08:09.359Z,18.10
2018-11-21T12:09:09.351Z,18.10
2018-11-21T12:10:09.345Z,19.00
2018-11-21T12:11:09.336Z,18.90
2018-11-21T12:12:09.332Z,17.60
2018-11-21T12:13:09.323Z,16.90
2018-11-21T12:14:09.314Z,18.70
2018-11-21T12:15:09.305Z,21.20
2018-11-21T12:16:09.294Z,20.00
2018-11-21T12:17:09.284Z,18.10
2018-11-21T12:18:09.279Z,21.00
2018-11-21T12:19:09.271Z,18.20
2018-11-21T12:20:09.260Z,21.10
2018-11-21T12:21:09.249Z,20.70
2018-11-21T12:22:09.241Z,19.30
2018-11-21T12:23:09.232Z,20.30
2018-11-21T12:24:09.229Z,21.40
2018-11-21T12:25:09.223Z,20.90
2018-11-21T12:26:10.624Z,22.20
2018-11-21T12:27:09.201Z,18.80
2018-11-21T12:28:09.192Z,20.50
2018-11-21T12:29:09.181Z,19.50
2018-11-21T12:30:09.168Z,21.00
2018-11-21T12:31:09.160Z,21.20
2018-11-21T12:32:09.159Z,19.80
2018-11-21T12:33:09.151Z,18.20
2018-11-21T12:34:09.133Z,20.60
2018-11-21T12:35:09.125Z,20.10
2018-11-21T12:36:09.120Z,21.30
2018-11-21T12:37:09.120Z,19.70
2018-11-21T12:38:09.104Z,21.60
2018-11-21T12:39:09.092Z,19.90
2018-11-21T12:40:09.078Z,18.70
2018-11-21T12:41:09.069Z,18.80
2018-11-21T12:42:09.062Z,19.30
2018-11-21T12:43:13.248Z,21.40
2018-11-21T12:44:09.048Z,21.40
2018-11-21T12:45:09.037Z,21.70
2018-11-21T12:46:09.028Z,20.40
2018-11-21T12:47:09.019Z,18.40
2018-11-21T12:48:09.006Z,20.30
2018-11-21T12:49:08.997Z,21.40
2018-11-21T12:50:08.990Z,21.30
2018-11-21T12:51:08.982Z,21.80
2018-11-21T12:52:08.967Z,20.10